sensor_id;sensor_type;location;lat;lon;timestamp;pressure;altitude;pressure_sealevel;temperature;humidity
30708;BME280;17458;48.958;8.284;2023-08-21T00:02:16;100777.38;;;28.10;64.71
30708;BME280;17458;48.958;8.284;2023-08-21T00:04:59;100770.81;;;28.25;63.71
30708;BME280;17458;48.958;8.284;2023-08-21T00:07:43;100773.53;;;28.25;63.75
30708;BME280;17458;48.958;8.284;2023-08-21T00:10:29;100776.16;;;28.34;63.46
30708;BME280;17458;48.958;8.284;2023-08-21T00:13:14;100768.88;;;28.35;63.12
30708;BME280;17458;48.958;8.284;2023-08-21T00:15:58;100770.72;;;28.33;62.92
30708;BME280;17458;48.958;8.284;2023-08-21T00:18:42;100767.09;;;28.31;63.09
30708;BME280;17458;48.958;8.284;2023-08-21T00:21:25;100768.88;;;28.33;62.39
30708;BME280;17458;48.958;8.284;2023-08-21T00:24:09;100769.75;;;28.35;62.42
30708;BME280;17458;48.958;8.284;2023-08-21T00:26:53;100769.81;;;28.32;62.83
30708;BME280;17458;48.958;8.284;2023-08-21T00:29:37;100761.84;;;28.15;63.10
30708;BME280;17458;48.958;8.284;2023-08-21T00:32:21;100765.44;;;28.17;63.24
30708;BME280;17458;48.958;8.284;2023-08-21T00:35:05;100770.94;;;28.16;62.97
30708;BME280;17458;48.958;8.284;2023-08-21T00:37:49;100763.66;;;28.16;62.73
30708;BME280;17458;48.958;8.284;2023-08-21T00:40:34;100757.31;;;28.14;62.86
30708;BME280;17458;48.958;8.284;2023-08-21T00:43:18;100765.50;;;28.13;62.84
30708;BME280;17458;48.958;8.284;2023-08-21T00:46:03;100759.13;;;28.14;62.73
30708;BME280;17458;48.958;8.284;2023-08-21T00:48:47;100758.34;;;28.07;63.09
30708;BME280;17458;48.958;8.284;2023-08-21T00:51:32;100758.63;;;27.87;63.44
30708;BME280;17458;48.958;8.284;2023-08-21T00:54:17;100750.97;;;27.43;65.22
30708;BME280;17458;48.958;8.284;2023-08-21T00:57:01;100759.88;;;27.62;64.51
30708;BME280;17458;48.958;8.284;2023-08-21T00:59:46;100765.06;;;27.80;63.92
30708;BME280;17458;48.958;8.284;2023-08-21T01:02:31;100763.13;;;27.90;63.50
30708;BME280;17458;48.958;8.284;2023-08-21T01:05:14;100760.44;;;27.87;63.41
30708;BME280;17458;48.958;8.284;2023-08-21T01:08:19;100764.13;;;27.84;63.65
30708;BME280;17458;48.958;8.284;2023-08-21T01:11:14;100770.47;;;27.85;63.86
30708;BME280;17458;48.958;8.284;2023-08-21T01:16:54;100772.47;;;27.74;63.99
30708;BME280;17458;48.958;8.284;2023-08-21T01:19:43;100766.16;;;27.69;64.41
30708;BME280;17458;48.958;8.284;2023-08-21T01:22:27;100772.53;;;27.66;64.51
30708;BME280;17458;48.958;8.284;2023-08-21T01:25:12;100776.06;;;27.76;64.31
30708;BME280;17458;48.958;8.284;2023-08-21T01:27:56;100774.59;;;27.46;65.16
30708;BME280;17458;48.958;8.284;2023-08-21T01:30:41;100776.25;;;27.62;64.85
30708;BME280;17458;48.958;8.284;2023-08-21T01:33:27;100775.53;;;27.43;65.35
30708;BME280;17458;48.958;8.284;2023-08-21T01:36:14;100774.56;;;27.50;65.17
30708;BME280;17458;48.958;8.284;2023-08-21T01:38:59;100766.28;;;27.55;64.81
30708;BME280;17458;48.958;8.284;2023-08-21T01:41:43;100766.25;;;27.61;64.88
30708;BME280;17458;48.958;8.284;2023-08-21T01:44:27;100761.72;;;27.62;64.70
30708;BME280;17458;48.958;8.284;2023-08-21T01:47:12;100762.50;;;27.70;64.27
30708;BME280;17458;48.958;8.284;2023-08-21T01:49:56;100764.44;;;27.60;64.36
30708;BME280;17458;48.958;8.284;2023-08-21T01:52:40;100773.59;;;27.51;64.45
30708;BME280;17458;48.958;8.284;2023-08-21T01:55:24;100772.75;;;27.48;64.65
30708;BME280;17458;48.958;8.284;2023-08-21T01:58:08;100772.94;;;27.34;65.19
30708;BME280;17458;48.958;8.284;2023-08-21T02:00:52;100784.66;;;27.41;64.85
30708;BME280;17458;48.958;8.284;2023-08-21T02:03:36;100780.97;;;27.46;64.60
30708;BME280;17458;48.958;8.284;2023-08-21T02:06:20;100780.03;;;27.47;64.42
30708;BME280;17458;48.958;8.284;2023-08-21T02:09:04;100785.41;;;27.58;64.00
30708;BME280;17458;48.958;8.284;2023-08-21T02:11:48;100778.97;;;27.64;63.69
30708;BME280;17458;48.958;8.284;2023-08-21T02:14:32;100777.16;;;27.64;63.73
30708;BME280;17458;48.958;8.284;2023-08-21T02:17:16;100782.63;;;27.63;63.55
30708;BME280;17458;48.958;8.284;2023-08-21T02:20:00;100773.88;;;27.32;64.81
30708;BME280;17458;48.958;8.284;2023-08-21T02:22:46;100781.19;;;27.25;65.09
30708;BME280;17458;48.958;8.284;2023-08-21T02:25:31;100786.47;;;27.42;64.53
30708;BME280;17458;48.958;8.284;2023-08-21T02:28:15;100781.94;;;27.41;64.31
30708;BME280;17458;48.958;8.284;2023-08-21T02:30:59;100778.22;;;27.49;64.07
30708;BME280;17458;48.958;8.284;2023-08-21T02:33:43;100787.22;;;27.53;63.72
30708;BME280;17458;48.958;8.284;2023-08-21T02:36:27;100781.84;;;27.48;63.81
30708;BME280;17458;48.958;8.284;2023-08-21T02:39:11;100796.47;;;27.43;63.81
30708;BME280;17458;48.958;8.284;2023-08-21T02:41:54;100792.00;;;27.36;64.12
30708;BME280;17458;48.958;8.284;2023-08-21T02:44:38;100801.19;;;27.26;64.82
30708;BME280;17458;48.958;8.284;2023-08-21T02:47:22;100800.22;;;27.33;64.38
30708;BME280;17458;48.958;8.284;2023-08-21T02:50:08;100792.84;;;27.41;64.15
30708;BME280;17458;48.958;8.284;2023-08-21T02:52:52;100798.25;;;27.44;63.85
30708;BME280;17458;48.958;8.284;2023-08-21T02:55:36;100789.16;;;27.46;63.80
30708;BME280;17458;48.958;8.284;2023-08-21T02:58:20;100792.78;;;27.47;63.23
30708;BME280;17458;48.958;8.284;2023-08-21T03:01:04;100796.44;;;27.44;63.49
30708;BME280;17458;48.958;8.284;2023-08-21T03:03:49;100790.09;;;27.41;63.71
30708;BME280;17458;48.958;8.284;2023-08-21T03:06:33;100793.72;;;27.43;63.49
30708;BME280;17458;48.958;8.284;2023-08-21T03:09:17;100786.47;;;27.40;63.56
30708;BME280;17458;48.958;8.284;2023-08-21T03:12:01;100784.63;;;27.42;63.34
30708;BME280;17458;48.958;8.284;2023-08-21T03:14:46;100779.19;;;27.42;63.25
30708;BME280;17458;48.958;8.284;2023-08-21T03:17:30;100784.63;;;27.42;63.10
30708;BME280;17458;48.958;8.284;2023-08-21T03:20:14;100782.84;;;27.40;63.04
30708;BME280;17458;48.958;8.284;2023-08-21T03:22:59;100786.50;;;27.39;63.06
30708;BME280;17458;48.958;8.284;2023-08-21T03:25:43;100786.56;;;27.36;63.22
30708;BME280;17458;48.958;8.284;2023-08-21T03:28:27;100780.22;;;27.34;63.21
30708;BME280;17458;48.958;8.284;2023-08-21T03:31:11;100792.97;;;27.30;63.18
30708;BME280;17458;48.958;8.284;2023-08-21T03:33:56;100793.00;;;27.27;63.26
30708;BME280;17458;48.958;8.284;2023-08-21T03:36:41;100798.44;;;27.30;63.38
30708;BME280;17458;48.958;8.284;2023-08-21T03:39:26;100790.22;;;27.32;63.00
30708;BME280;17458;48.958;8.284;2023-08-21T03:42:10;100794.78;;;27.31;62.91
30708;BME280;17458;48.958;8.284;2023-08-21T03:44:54;100796.59;;;27.31;63.15
30708;BME280;17458;48.958;8.284;2023-08-21T03:47:38;100785.75;;;27.25;63.15
30708;BME280;17458;48.958;8.284;2023-08-21T03:50:29;100789.31;;;26.33;65.84
30708;BME280;17458;48.958;8.284;2023-08-21T03:53:12;100793.00;;;26.22;66.75
30708;BME280;17458;48.958;8.284;2023-08-21T03:55:57;100791.03;;;26.46;65.87
30708;BME280;17458;48.958;8.284;2023-08-21T03:58:40;100797.25;;;26.65;65.15
30708;BME280;17458;48.958;8.284;2023-08-21T04:01:24;100794.41;;;26.74;64.90
30708;BME280;17458;48.958;8.284;2023-08-21T04:04:09;100797.16;;;26.73;65.05
30708;BME280;17458;48.958;8.284;2023-08-21T04:06:53;100795.22;;;26.86;64.70
30708;BME280;17458;48.958;8.284;2023-08-21T04:09:37;100801.50;;;26.95;63.96
30708;BME280;17458;48.958;8.284;2023-08-21T04:12:21;100802.38;;;27.00;63.56
30708;BME280;17458;48.958;8.284;2023-08-21T04:15:06;100797.78;;;27.05;63.46
30708;BME280;17458;48.958;8.284;2023-08-21T04:17:50;100797.78;;;27.05;63.18
30708;BME280;17458;48.958;8.284;2023-08-21T04:20:34;100796.88;;;27.06;63.04
30708;BME280;17458;48.958;8.284;2023-08-21T04:23:18;100803.25;;;27.04;63.07
30708;BME280;17458;48.958;8.284;2023-08-21T04:26:02;100804.19;;;27.01;63.03
30708;BME280;17458;48.958;8.284;2023-08-21T04:28:47;100802.38;;;26.99;63.00
30708;BME280;17458;48.958;8.284;2023-08-21T04:31:32;100805.13;;;26.96;63.10
30708;BME280;17458;48.958;8.284;2023-08-21T04:34:16;100807.84;;;26.97;63.09
30708;BME280;17458;48.958;8.284;2023-08-21T04:37:02;100804.72;;;26.39;64.73
30708;BME280;17458;48.958;8.284;2023-08-21T04:39:50;100810.34;;;26.04;66.58
30708;BME280;17458;48.958;8.284;2023-08-21T04:42:35;100810.38;;;25.98;67.11
30708;BME280;17458;48.958;8.284;2023-08-21T04:45:19;100813.81;;;26.27;65.99
30708;BME280;17458;48.958;8.284;2023-08-21T04:48:06;100812.84;;;26.40;65.66
30708;BME280;17458;48.958;8.284;2023-08-21T04:50:50;100812.00;;;26.35;65.62
30708;BME280;17458;48.958;8.284;2023-08-21T04:53:35;100820.38;;;25.96;67.21
30708;BME280;17458;48.958;8.284;2023-08-21T04:56:20;100823.09;;;25.96;67.90
30708;BME280;17458;48.958;8.284;2023-08-21T04:59:05;100816.75;;;25.95;68.17
30708;BME280;17458;48.958;8.284;2023-08-21T05:01:49;100826.63;;;26.13;67.40
30708;BME280;17458;48.958;8.284;2023-08-21T05:04:35;100831.16;;;26.11;67.41
30708;BME280;17458;48.958;8.284;2023-08-21T05:07:20;100823.03;;;26.08;67.82
30708;BME280;17458;48.958;8.284;2023-08-21T05:10:05;100832.94;;;26.17;67.75
30708;BME280;17458;48.958;8.284;2023-08-21T05:12:52;100833.59;;;26.58;66.79
30708;BME280;17458;48.958;8.284;2023-08-21T05:15:36;100837.19;;;26.66;66.49
30708;BME280;17458;48.958;8.284;2023-08-21T05:18:21;100834.28;;;26.84;65.97
30708;BME280;17458;48.958;8.284;2023-08-21T05:21:05;100837.84;;;26.97;65.73
30708;BME280;17458;48.958;8.284;2023-08-21T05:23:49;100842.09;;;27.26;64.81
30708;BME280;17458;48.958;8.284;2023-08-21T05:26:35;100846.34;;;27.54;64.17
30708;BME280;17458;48.958;8.284;2023-08-21T05:29:20;100844.91;;;27.18;65.74
30708;BME280;17458;48.958;8.284;2023-08-21T05:32:04;100848.69;;;27.06;66.11
30708;BME280;17458;48.958;8.284;2023-08-21T05:34:48;100846.00;;;27.02;65.82
30708;BME280;17458;48.958;8.284;2023-08-21T05:37:32;100844.00;;;27.21;65.20
30708;BME280;17458;48.958;8.284;2023-08-21T05:40:17;100847.28;;;26.52;67.59
30708;BME280;17458;48.958;8.284;2023-08-21T05:43:01;100839.06;;;26.54;67.52
30708;BME280;17458;48.958;8.284;2023-08-21T05:45:45;100840.66;;;26.85;67.23
30708;BME280;17458;48.958;8.284;2023-08-21T05:48:31;100852.06;;;27.30;65.46
30708;BME280;17458;48.958;8.284;2023-08-21T05:51:15;100861.88;;;27.50;65.08
30708;BME280;17458;48.958;8.284;2023-08-21T05:53:59;100850.25;;;27.30;65.17
30708;BME280;17458;48.958;8.284;2023-08-21T05:56:43;100846.03;;;26.97;66.08
30708;BME280;17458;48.958;8.284;2023-08-21T05:59:30;100851.19;;;27.25;65.42
30708;BME280;17458;48.958;8.284;2023-08-21T06:02:16;100845.06;;;27.01;66.26
30708;BME280;17458;48.958;8.284;2023-08-21T06:05:00;100863.25;;;27.04;66.21
30708;BME280;17458;48.958;8.284;2023-08-21T06:07:43;100860.38;;;27.16;66.08
30708;BME280;17458;48.958;8.284;2023-08-21T06:10:27;100866.47;;;27.44;65.12
30708;BME280;17458;48.958;8.284;2023-08-21T06:13:11;100867.59;;;27.23;65.93
30708;BME280;17458;48.958;8.284;2023-08-21T06:15:55;100876.91;;;26.96;66.99
30708;BME280;17458;48.958;8.284;2023-08-21T06:18:41;100878.50;;;27.23;66.69
30708;BME280;17458;48.958;8.284;2023-08-21T06:21:25;100879.25;;;27.37;65.74
30708;BME280;17458;48.958;8.284;2023-08-21T06:24:09;100879.28;;;27.36;65.59
30708;BME280;17458;48.958;8.284;2023-08-21T06:26:53;100869.53;;;27.10;66.45
30708;BME280;17458;48.958;8.284;2023-08-21T06:29:37;100882.84;;;27.42;65.33
30708;BME280;17458;48.958;8.284;2023-08-21T06:32:22;100881.78;;;27.56;65.57
30708;BME280;17458;48.958;8.284;2023-08-21T06:35:07;100884.31;;;27.77;64.10
30708;BME280;17458;48.958;8.284;2023-08-21T06:37:51;100887.69;;;27.99;63.37
30708;BME280;17458;48.958;8.284;2023-08-21T06:40:35;100891.44;;;27.90;63.23
30708;BME280;17458;48.958;8.284;2023-08-21T06:43:19;100894.59;;;28.30;62.72
30708;BME280;17458;48.958;8.284;2023-08-21T06:46:04;100906.22;;;28.43;62.33
30708;BME280;17458;48.958;8.284;2023-08-21T06:48:48;100899.31;;;28.14;62.57
30708;BME280;17458;48.958;8.284;2023-08-21T06:51:34;100896.00;;;27.88;63.77
30708;BME280;17458;48.958;8.284;2023-08-21T06:54:18;100892.25;;;27.95;63.65
30708;BME280;17458;48.958;8.284;2023-08-21T06:57:02;100897.13;;;28.44;61.97
30708;BME280;17458;48.958;8.284;2023-08-21T06:59:46;100898.03;;;28.44;62.16
30708;BME280;17458;48.958;8.284;2023-08-21T07:02:30;100893.13;;;27.99;62.55
30708;BME280;17458;48.958;8.284;2023-08-21T07:05:14;100898.78;;;27.85;63.92
30708;BME280;17458;48.958;8.284;2023-08-21T07:07:58;100884.53;;;27.59;64.92
30708;BME280;17458;48.958;8.284;2023-08-21T07:10:42;100898.03;;;28.44;62.87
30708;BME280;17458;48.958;8.284;2023-08-21T07:13:26;100903.28;;;28.58;62.05
30708;BME280;17458;48.958;8.284;2023-08-21T07:16:10;100902.88;;;28.87;61.40
30708;BME280;17458;48.958;8.284;2023-08-21T07:18:54;100903.03;;;29.30;60.27
30708;BME280;17458;48.958;8.284;2023-08-21T07:21:38;100909.03;;;29.52;58.83
30708;BME280;17458;48.958;8.284;2023-08-21T07:24:21;100909.72;;;29.63;58.21
30708;BME280;17458;48.958;8.284;2023-08-21T07:27:05;100910.63;;;29.13;58.92
30708;BME280;17458;48.958;8.284;2023-08-21T07:29:49;100906.53;;;29.37;58.64
30708;BME280;17458;48.958;8.284;2023-08-21T07:32:33;100909.91;;;29.54;58.31
30708;BME280;17458;48.958;8.284;2023-08-21T07:35:17;100918.00;;;29.61;58.13
30708;BME280;17458;48.958;8.284;2023-08-21T07:38:01;100913.81;;;29.38;59.00
30708;BME280;17458;48.958;8.284;2023-08-21T07:40:45;100916.13;;;29.10;58.93
30708;BME280;17458;48.958;8.284;2023-08-21T07:43:30;100909.09;;;29.49;58.13
30708;BME280;17458;48.958;8.284;2023-08-21T07:46:14;100906.72;;;29.77;58.20
30708;BME280;17458;48.958;8.284;2023-08-21T07:49:02;100904.16;;;29.18;59.88
30708;BME280;17458;48.958;8.284;2023-08-21T07:51:46;100911.78;;;29.50;59.28
30708;BME280;17458;48.958;8.284;2023-08-21T07:54:30;100914.84;;;29.32;58.42
30708;BME280;17458;48.958;8.284;2023-08-21T07:57:14;100914.94;;;29.77;58.96
30708;BME280;17458;48.958;8.284;2023-08-21T07:59:58;100911.53;;;30.10;57.11
30708;BME280;17458;48.958;8.284;2023-08-21T08:02:42;100916.38;;;29.98;57.29
30708;BME280;17458;48.958;8.284;2023-08-21T08:05:27;100903.25;;;30.13;56.88
30708;BME280;17458;48.958;8.284;2023-08-21T08:08:11;100905.84;;;30.19;56.18
30708;BME280;17458;48.958;8.284;2023-08-21T08:10:55;100911.53;;;30.52;56.10
30708;BME280;17458;48.958;8.284;2023-08-21T08:13:39;100910.97;;;30.36;55.58
30708;BME280;17458;48.958;8.284;2023-08-21T08:16:23;100908.03;;;30.45;54.40
30708;BME280;17458;48.958;8.284;2023-08-21T08:19:07;100917.13;;;30.87;54.16
30708;BME280;17458;48.958;8.284;2023-08-21T08:21:51;100914.88;;;31.03;53.53
30708;BME280;17458;48.958;8.284;2023-08-21T08:24:35;100919.06;;;31.55;51.85
30708;BME280;17458;48.958;8.284;2023-08-21T08:27:20;100924.13;;;31.72;51.20
30708;BME280;17458;48.958;8.284;2023-08-21T08:30:04;100922.63;;;30.87;52.89
30708;BME280;17458;48.958;8.284;2023-08-21T08:32:48;100923.25;;;30.98;51.81
30708;BME280;17458;48.958;8.284;2023-08-21T08:35:32;100921.31;;;31.73;51.04
30708;BME280;17458;48.958;8.284;2023-08-21T08:38:16;100921.13;;;31.45;50.67
30708;BME280;17458;48.958;8.284;2023-08-21T08:41:02;100916.69;;;31.41;51.26
30708;BME280;17458;48.958;8.284;2023-08-21T08:43:46;100914.94;;;31.37;52.24
30708;BME280;17458;48.958;8.284;2023-08-21T08:46:31;100918.31;;;31.48;51.44
30708;BME280;17458;48.958;8.284;2023-08-21T08:49:16;100921.31;;;31.73;51.29
30708;BME280;17458;48.958;8.284;2023-08-21T08:52:00;100917.88;;;31.65;51.04
30708;BME280;17458;48.958;8.284;2023-08-21T08:54:45;100925.19;;;31.98;51.05
30708;BME280;17458;48.958;8.284;2023-08-21T08:57:30;100918.97;;;32.23;49.98
30708;BME280;17458;48.958;8.284;2023-08-21T09:00:14;100923.91;;;32.70;50.63
30708;BME280;17458;48.958;8.284;2023-08-21T09:02:59;100921.94;;;32.75;50.00
30708;BME280;17458;48.958;8.284;2023-08-21T09:05:42;100923.00;;;32.70;49.25
30708;BME280;17458;48.958;8.284;2023-08-21T09:08:26;100922.00;;;33.00;49.42
30708;BME280;17458;48.958;8.284;2023-08-21T09:11:10;100908.31;;;32.11;51.10
30708;BME280;17458;48.958;8.284;2023-08-21T09:13:55;100911.22;;;32.37;50.94
30708;BME280;17458;48.958;8.284;2023-08-21T09:16:58;100918.44;;;32.41;50.63
30708;BME280;17458;48.958;8.284;2023-08-21T09:19:43;100921.06;;;32.44;51.18
30708;BME280;17458;48.958;8.284;2023-08-21T09:22:27;100920.34;;;32.67;50.44
30708;BME280;17458;48.958;8.284;2023-08-21T09:25:11;100918.38;;;32.43;50.82
30708;BME280;17458;48.958;8.284;2023-08-21T09:27:56;100897.84;;;32.54;51.88
30708;BME280;17458;48.958;8.284;2023-08-21T09:30:53;100906.28;;;33.32;49.50
30708;BME280;17458;48.958;8.284;2023-08-21T09:33:38;100903.63;;;32.74;51.31
30708;BME280;17458;48.958;8.284;2023-08-21T09:36:22;100908.97;;;33.07;49.74
30708;BME280;17458;48.958;8.284;2023-08-21T09:39:15;100906.72;;;33.46;48.74
30708;BME280;17458;48.958;8.284;2023-08-21T09:42:07;100910.50;;;33.42;48.19
30708;BME280;17458;48.958;8.284;2023-08-21T09:44:51;100907.13;;;33.07;48.72
30708;BME280;17458;48.958;8.284;2023-08-21T09:47:36;100894.97;;;33.66;48.00
30708;BME280;17458;48.958;8.284;2023-08-21T09:50:22;100900.47;;;33.92;47.27
30708;BME280;17458;48.958;8.284;2023-08-21T09:53:06;100902.09;;;33.47;47.92
30708;BME280;17458;48.958;8.284;2023-08-21T09:55:53;100895.34;;;33.30;48.19
30708;BME280;17458;48.958;8.284;2023-08-21T09:58:37;100881.88;;;33.21;47.20
30708;BME280;17458;48.958;8.284;2023-08-21T10:01:22;100879.09;;;33.72;46.20
30708;BME280;17458;48.958;8.284;2023-08-21T10:04:08;100879.81;;;33.54;47.88
30708;BME280;17458;48.958;8.284;2023-08-21T10:06:54;100877.25;;;33.98;48.42
30708;BME280;17458;48.958;8.284;2023-08-21T10:09:41;100869.28;;;33.90;44.89
30708;BME280;17458;48.958;8.284;2023-08-21T10:12:26;100875.84;;;32.84;48.68
30708;BME280;17458;48.958;8.284;2023-08-21T10:15:10;100873.06;;;33.38;45.22
30708;BME280;17458;48.958;8.284;2023-08-21T10:17:54;100875.47;;;33.21;45.93
30708;BME280;17458;48.958;8.284;2023-08-21T10:20:39;100864.66;;;33.41;45.89
30708;BME280;17458;48.958;8.284;2023-08-21T10:23:24;100869.34;;;33.89;45.40
30708;BME280;17458;48.958;8.284;2023-08-21T10:26:09;100868.28;;;34.39;44.23
30708;BME280;17458;48.958;8.284;2023-08-21T10:29:01;100868.72;;;34.05;44.53
30708;BME280;17458;48.958;8.284;2023-08-21T10:31:58;100863.22;;;34.29;44.67
30708;BME280;17458;48.958;8.284;2023-08-21T10:34:51;100857.38;;;34.81;46.72
30708;BME280;17458;48.958;8.284;2023-08-21T10:38:12;100847.25;;;34.82;42.79
30708;BME280;17458;48.958;8.284;2023-08-21T10:41:08;100856.44;;;34.82;44.84
30708;BME280;17458;48.958;8.284;2023-08-21T10:43:54;100857.75;;;34.72;42.56
30708;BME280;17458;48.958;8.284;2023-08-21T10:46:52;100857.47;;;34.80;41.33
30708;BME280;17458;48.958;8.284;2023-08-21T10:49:36;100850.06;;;35.02;43.29
30708;BME280;17458;48.958;8.284;2023-08-21T10:55:09;100852.91;;;35.43;41.98
30708;BME280;17458;48.958;8.284;2023-08-21T10:57:53;100849.88;;;35.49;40.75
30708;BME280;17458;48.958;8.284;2023-08-21T11:00:37;100844.81;;;35.59;43.05
30708;BME280;17458;48.958;8.284;2023-08-21T11:03:21;100850.06;;;35.44;42.80
30708;BME280;17458;48.958;8.284;2023-08-21T11:06:10;100842.19;;;35.56;41.97
30708;BME280;17458;48.958;8.284;2023-08-21T11:08:55;100849.13;;;35.24;42.91
30708;BME280;17458;48.958;8.284;2023-08-21T11:11:39;100838.88;;;35.68;43.15
30708;BME280;17458;48.958;8.284;2023-08-21T11:14:26;100840.94;;;35.83;41.66
30708;BME280;17458;48.958;8.284;2023-08-21T11:17:10;100841.81;;;36.04;41.88
30708;BME280;17458;48.958;8.284;2023-08-21T11:19:55;100837.13;;;36.06;41.06
30708;BME280;17458;48.958;8.284;2023-08-21T11:22:40;100838.53;;;35.55;42.28
30708;BME280;17458;48.958;8.284;2023-08-21T11:25:24;100835.66;;;35.78;41.08
30708;BME280;17458;48.958;8.284;2023-08-21T11:28:09;100836.72;;;35.95;42.25
30708;BME280;17458;48.958;8.284;2023-08-21T11:30:55;100832.72;;;36.20;40.69
30708;BME280;17458;48.958;8.284;2023-08-21T11:33:39;100834.63;;;36.00;41.94
30708;BME280;17458;48.958;8.284;2023-08-21T11:36:23;100836.66;;;36.15;40.54
30708;BME280;17458;48.958;8.284;2023-08-21T11:39:07;100823.19;;;35.68;41.11
30708;BME280;17458;48.958;8.284;2023-08-21T11:41:54;100830.88;;;36.40;39.83
30708;BME280;17458;48.958;8.284;2023-08-21T11:47:33;100828.22;;;36.18;39.85
30708;BME280;17458;48.958;8.284;2023-08-21T11:50:18;100830.38;;;35.72;41.50
30708;BME280;17458;48.958;8.284;2023-08-21T11:53:03;100827.16;;;35.63;40.02
30708;BME280;17458;48.958;8.284;2023-08-21T11:55:50;100825.69;;;35.54;40.65
30708;BME280;17458;48.958;8.284;2023-08-21T11:58:38;100824.69;;;35.96;39.97
30708;BME280;17458;48.958;8.284;2023-08-21T12:01:22;100826.91;;;36.27;39.46
30708;BME280;17458;48.958;8.284;2023-08-21T12:04:16;100828.56;;;36.31;39.57
30708;BME280;17458;48.958;8.284;2023-08-21T12:07:00;100818.91;;;36.20;39.55
30708;BME280;17458;48.958;8.284;2023-08-21T12:09:48;100826.50;;;36.53;38.24
30708;BME280;17458;48.958;8.284;2023-08-21T12:12:35;100825.56;;;36.73;40.16
30708;BME280;17458;48.958;8.284;2023-08-21T12:15:19;100824.06;;;36.47;39.35
30708;BME280;17458;48.958;8.284;2023-08-21T12:18:04;100826.56;;;36.89;39.61
30708;BME280;17458;48.958;8.284;2023-08-21T12:20:48;100819.16;;;36.89;38.14
30708;BME280;17458;48.958;8.284;2023-08-21T12:23:32;100812.78;;;36.70;38.85
30708;BME280;17458;48.958;8.284;2023-08-21T12:26:16;100817.84;;;36.61;38.47
30708;BME280;17458;48.958;8.284;2023-08-21T12:29:06;100814.94;;;36.45;39.12
30708;BME280;17458;48.958;8.284;2023-08-21T12:31:50;100807.13;;;36.90;38.03
30708;BME280;17458;48.958;8.284;2023-08-21T12:34:33;100801.69;;;37.23;38.19
30708;BME280;17458;48.958;8.284;2023-08-21T12:37:18;100804.53;;;37.22;37.38
30708;BME280;17458;48.958;8.284;2023-08-21T12:40:02;100802.53;;;37.07;37.77
30708;BME280;17458;48.958;8.284;2023-08-21T12:42:46;100796.25;;;36.31;38.34
30708;BME280;17458;48.958;8.284;2023-08-21T12:45:30;100793.19;;;36.37;37.91
30708;BME280;17458;48.958;8.284;2023-08-21T12:48:14;100780.72;;;37.01;37.08
30708;BME280;17458;48.958;8.284;2023-08-21T12:50:58;100785.91;;;36.72;37.45
30708;BME280;17458;48.958;8.284;2023-08-21T12:53:42;100785.34;;;36.64;36.88
30708;BME280;17458;48.958;8.284;2023-08-21T12:56:26;100780.53;;;36.50;38.05
30708;BME280;17458;48.958;8.284;2023-08-21T12:59:10;100778.50;;;36.73;37.41
30708;BME280;17458;48.958;8.284;2023-08-21T13:01:54;100774.34;;;37.17;38.86
30708;BME280;17458;48.958;8.284;2023-08-21T13:04:38;100778.16;;;37.32;37.86
30708;BME280;17458;48.958;8.284;2023-08-21T13:07:22;100772.13;;;37.24;37.38
30708;BME280;17458;48.958;8.284;2023-08-21T13:10:06;100777.53;;;37.60;37.24
30708;BME280;17458;48.958;8.284;2023-08-21T13:12:51;100771.78;;;37.30;38.72
30708;BME280;17458;48.958;8.284;2023-08-21T13:15:35;100773.81;;;37.26;38.72
30708;BME280;17458;48.958;8.284;2023-08-21T13:18:19;100768.44;;;37.41;38.66
30708;BME280;17458;48.958;8.284;2023-08-21T13:21:03;100770.09;;;37.28;38.88
30708;BME280;17458;48.958;8.284;2023-08-21T13:23:47;100771.38;;;37.38;39.29
30708;BME280;17458;48.958;8.284;2023-08-21T13:26:32;100773.06;;;37.57;38.53
30708;BME280;17458;48.958;8.284;2023-08-21T13:29:16;100770.16;;;37.43;36.65
30708;BME280;17458;48.958;8.284;2023-08-21T13:32:00;100765.19;;;37.33;36.94
30708;BME280;17458;48.958;8.284;2023-08-21T13:34:44;100773.31;;;37.53;37.24
30708;BME280;17458;48.958;8.284;2023-08-21T13:37:28;100766.19;;;37.32;35.75
30708;BME280;17458;48.958;8.284;2023-08-21T13:40:12;100763.00;;;37.22;37.18
30708;BME280;17458;48.958;8.284;2023-08-21T13:42:58;100763.03;;;37.72;37.28
30708;BME280;17458;48.958;8.284;2023-08-21T13:45:43;100761.16;;;37.73;35.61
30708;BME280;17458;48.958;8.284;2023-08-21T13:48:27;100749.00;;;37.58;37.35
30708;BME280;17458;48.958;8.284;2023-08-21T13:51:11;100755.00;;;37.83;35.83
30708;BME280;17458;48.958;8.284;2023-08-21T13:53:55;100753.59;;;38.08;35.75
30708;BME280;17458;48.958;8.284;2023-08-21T13:56:39;100753.50;;;37.60;35.94
30708;BME280;17458;48.958;8.284;2023-08-21T13:59:23;100752.03;;;37.71;34.97
30708;BME280;17458;48.958;8.284;2023-08-21T14:02:07;100750.59;;;37.46;35.54
30708;BME280;17458;48.958;8.284;2023-08-21T14:04:51;100745.91;;;37.64;35.64
30708;BME280;17458;48.958;8.284;2023-08-21T14:07:35;100734.66;;;37.50;36.12
30708;BME280;17458;48.958;8.284;2023-08-21T14:10:19;100724.22;;;37.55;35.35
30708;BME280;17458;48.958;8.284;2023-08-21T14:13:03;100727.97;;;37.71;35.77
30708;BME280;17458;48.958;8.284;2023-08-21T14:15:47;100727.56;;;37.61;36.74
30708;BME280;17458;48.958;8.284;2023-08-21T14:18:31;100720.56;;;37.54;35.80
30708;BME280;17458;48.958;8.284;2023-08-21T14:21:15;100722.47;;;38.18;36.05
30708;BME280;17458;48.958;8.284;2023-08-21T14:23:59;100731.16;;;38.28;37.51
30708;BME280;17458;48.958;8.284;2023-08-21T14:26:43;100724.00;;;38.55;35.94
30708;BME280;17458;48.958;8.284;2023-08-21T14:29:28;100721.38;;;38.68;36.58
30708;BME280;17458;48.958;8.284;2023-08-21T14:32:12;100718.28;;;38.58;36.05